createdAt,value
2022-10-26T00:01:11.807Z,100.00
2022-10-26T00:03:43.708Z,100.00
2022-10-26T00:06:14.882Z,100.00
2022-10-26T00:08:42.496Z,100.00
2022-10-26T00:11:10.993Z,100.00
2022-10-26T00:13:39.530Z,100.00
2022-10-26T00:16:15.359Z,100.00
2022-10-26T00:18:43.743Z,100.00
2022-10-26T00:21:11.289Z,100.00
2022-10-26T00:23:39.572Z,100.00
2022-10-26T00:26:07.116Z,100.00
2022-10-26T00:28:34.601Z,100.00
2022-10-26T00:31:07.534Z,100.00
2022-10-26T00:33:35.011Z,100.00
2022-10-26T00:36:02.205Z,100.00
2022-10-26T00:38:29.762Z,100.00
2022-10-26T00:43:25.134Z,100.00
2022-10-26T00:45:53.837Z,100.00
2022-10-26T00:48:35.505Z,100.00
2022-10-26T00:51:09.119Z,100.00
2022-10-26T00:53:37.618Z,100.00
2022-10-26T00:56:05.088Z,100.00
2022-10-26T00:58:32.781Z,100.00
2022-10-26T01:00:59.795Z,100.00
2022-10-26T01:03:28.459Z,100.00
2022-10-26T01:05:58.954Z,100.00
2022-10-26T01:08:28.676Z,100.00
2022-10-26T01:10:57.818Z,100.00
2022-10-26T01:13:28.404Z,100.00
2022-10-26T01:15:55.454Z,100.00
2022-10-26T01:18:41.636Z,100.00
2022-10-26T01:21:20.943Z,100.00
2022-10-26T01:23:57.005Z,100.00
2022-10-26T01:26:49.867Z,100.00
2022-10-26T01:30:02.253Z,100.00
2022-10-26T01:33:03.159Z,100.00
2022-10-26T01:35:34.512Z,100.00
2022-10-26T01:38:11.013Z,100.00
2022-10-26T01:40:45.615Z,100.00
2022-10-26T01:43:14.773Z,100.00
2022-10-26T01:45:46.487Z,100.00
2022-10-26T01:48:15.083Z,100.00
2022-10-26T01:50:45.482Z,100.00
2022-10-26T01:53:15.362Z,100.00
2022-10-26T01:55:49.062Z,100.00
2022-10-26T01:58:25.094Z,100.00
2022-10-26T02:01:38.597Z,100.00
2022-10-26T02:04:30.233Z,100.00
2022-10-26T02:07:07.615Z,100.00
2022-10-26T02:09:55.936Z,100.00
2022-10-26T02:12:57.602Z,100.00
2022-10-26T02:15:54.743Z,100.00
2022-10-26T02:18:27.668Z,100.00
2022-10-26T02:21:01.318Z,100.00
2022-10-26T02:23:32.738Z,100.00
2022-10-26T02:26:01.299Z,100.00
2022-10-26T02:28:34.310Z,100.00
2022-10-26T02:31:03.867Z,100.00
2022-10-26T02:33:35.262Z,100.00
2022-10-26T02:36:05.614Z,100.00
2022-10-26T02:38:34.569Z,100.00
2022-10-26T02:41:03.873Z,100.00
2022-10-26T02:43:39.145Z,100.00
2022-10-26T02:46:15.363Z,100.00
2022-10-26T02:48:42.952Z,100.00
2022-10-26T02:51:15.719Z,100.00
2022-10-26T02:54:15.252Z,100.00
2022-10-26T02:56:55.646Z,100.00
2022-10-26T02:59:28.005Z,100.00
2022-10-26T03:01:55.891Z,100.00
2022-10-26T03:04:30.027Z,100.00
2022-10-26T03:06:57.222Z,100.00
2022-10-26T03:09:25.561Z,100.00
2022-10-26T03:11:53.593Z,100.00
2022-10-26T03:14:20.811Z,100.00
2022-10-26T03:16:47.764Z,100.00
2022-10-26T03:19:15.103Z,100.00
2022-10-26T03:21:42.485Z,100.00
2022-10-26T03:24:10.180Z,100.00
2022-10-26T03:26:37.323Z,100.00
2022-10-26T03:29:04.627Z,100.00
2022-10-26T03:31:31.444Z,100.00
2022-10-26T03:33:58.742Z,100.00
2022-10-26T03:36:25.947Z,100.00
2022-10-26T03:38:53.053Z,100.00
2022-10-26T03:41:20.077Z,100.00
2022-10-26T03:43:48.530Z,100.00
2022-10-26T03:46:15.597Z,100.00
2022-10-26T03:48:42.680Z,100.00
2022-10-26T03:51:09.641Z,100.00
2022-10-26T03:53:36.773Z,100.00
2022-10-26T03:56:03.730Z,99.78
2022-10-26T03:58:30.869Z,99.81
2022-10-26T04:00:57.744Z,100.00
2022-10-26T04:03:24.925Z,99.88
2022-10-26T04:05:52.288Z,100.00
2022-10-26T04:08:19.708Z,100.00
2022-10-26T04:10:47.572Z,100.00
2022-10-26T04:13:14.929Z,99.47
2022-10-26T04:15:41.935Z,99.36
2022-10-26T04:18:09.543Z,99.74
2022-10-26T04:20:36.880Z,99.81
2022-10-26T04:23:06.777Z,99.52
2022-10-26T04:25:34.341Z,99.49
2022-10-26T04:28:03.924Z,99.87
2022-10-26T04:30:32.363Z,99.17
2022-10-26T04:32:59.674Z,99.49
2022-10-26T04:35:27.591Z,99.35
2022-10-26T04:38:06.914Z,99.20
2022-10-26T04:40:35.359Z,98.95
2022-10-26T04:43:02.715Z,99.20
2022-10-26T04:45:31.172Z,99.32
2022-10-26T04:48:05.137Z,99.09
2022-10-26T04:50:32.277Z,99.45
2022-10-26T04:52:59.594Z,99.54
2022-10-26T04:55:26.829Z,99.78
2022-10-26T04:57:56.041Z,100.00
2022-10-26T05:00:25.783Z,100.00
2022-10-26T05:02:59.364Z,99.98
2022-10-26T05:05:27.043Z,100.00
2022-10-26T05:07:56.264Z,100.00
2022-10-26T05:10:24.945Z,100.00
2022-10-26T05:12:57.088Z,100.00
2022-10-26T05:15:24.296Z,100.00
2022-10-26T05:18:00.021Z,100.00
2022-10-26T05:20:31.036Z,100.00
2022-10-26T05:23:01.242Z,100.00
2022-10-26T05:25:30.059Z,99.90
2022-10-26T05:28:01.404Z,99.28
2022-10-26T05:30:29.883Z,99.83
2022-10-26T05:32:59.926Z,100.00
2022-10-26T05:35:28.511Z,100.00
2022-10-26T05:37:56.310Z,100.00
2022-10-26T05:40:24.524Z,100.00
2022-10-26T05:42:53.153Z,100.00
2022-10-26T05:45:20.308Z,100.00
2022-10-26T05:47:47.981Z,100.00
2022-10-26T05:50:15.290Z,100.00
2022-10-26T05:52:45.072Z,99.68
2022-10-26T05:55:15.395Z,99.66
2022-10-26T05:57:43.926Z,99.60
2022-10-26T06:00:23.276Z,99.36
2022-10-26T06:03:08.698Z,98.78
2022-10-26T06:05:45.254Z,98.86
2022-10-26T06:08:12.973Z,98.88
2022-10-26T06:10:41.728Z,98.89
2022-10-26T06:13:09.543Z,98.37
2022-10-26T06:16:09.986Z,98.06
2022-10-26T06:18:46.252Z,97.61
2022-10-26T06:21:26.876Z,97.66
2022-10-26T06:24:08.888Z,97.27
2022-10-26T06:26:45.466Z,97.08
2022-10-26T06:29:31.629Z,96.86
2022-10-26T06:31:59.241Z,96.54
2022-10-26T06:34:33.109Z,96.31
2022-10-26T06:37:01.848Z,95.70
2022-10-26T06:39:36.099Z,95.02
2022-10-26T06:42:03.629Z,94.72
2022-10-26T06:44:31.731Z,95.17
2022-10-26T06:47:19.729Z,95.30
2022-10-26T06:49:59.474Z,95.06
2022-10-26T06:52:44.996Z,94.24
2022-10-26T06:55:17.319Z,93.71
2022-10-26T06:57:45.133Z,93.40
2022-10-26T07:00:25.462Z,93.42
2022-10-26T07:02:52.974Z,92.87
2022-10-26T07:05:21.241Z,92.89
2022-10-26T07:07:48.945Z,92.77
2022-10-26T07:10:16.718Z,91.96
2022-10-26T07:12:44.666Z,93.04
2022-10-26T07:15:12.300Z,93.37
2022-10-26T07:17:48.190Z,92.99
2022-10-26T07:20:18.176Z,92.46
2022-10-26T07:22:45.219Z,92.77
2022-10-26T07:25:12.771Z,91.57
2022-10-26T07:27:39.844Z,91.95
2022-10-26T07:30:08.565Z,92.25
2022-10-26T07:32:36.638Z,91.52
2022-10-26T07:35:05.005Z,91.31
2022-10-26T07:37:32.289Z,91.13
2022-10-26T07:40:04.030Z,91.11
2022-10-26T07:42:34.692Z,91.20
2022-10-26T07:45:02.351Z,90.44
2022-10-26T07:47:29.323Z,90.52
2022-10-26T07:49:56.755Z,90.03
2022-10-26T07:52:24.249Z,89.38
2022-10-26T07:54:51.475Z,89.14
2022-10-26T07:57:18.709Z,89.15
2022-10-26T07:59:46.000Z,88.91
2022-10-26T08:02:13.931Z,89.79
2022-10-26T08:04:41.533Z,88.49
2022-10-26T08:07:08.461Z,87.70
2022-10-26T08:09:35.925Z,88.36
2022-10-26T08:12:02.853Z,88.30
2022-10-26T08:14:30.042Z,88.91
2022-10-26T08:16:57.241Z,88.12
2022-10-26T08:19:24.650Z,89.47
2022-10-26T08:21:51.602Z,88.78
2022-10-26T08:24:19.369Z,89.02
2022-10-26T08:26:47.546Z,89.08
2022-10-26T08:29:14.752Z,89.45
2022-10-26T08:31:41.993Z,90.04
2022-10-26T08:34:09.233Z,89.87
2022-10-26T08:36:36.692Z,89.30
2022-10-26T08:39:04.863Z,90.40
2022-10-26T08:41:41.156Z,90.77
2022-10-26T08:44:14.294Z,90.99
2022-10-26T08:46:47.081Z,91.10
2022-10-26T08:49:24.352Z,91.20
2022-10-26T08:51:56.265Z,91.65
2022-10-26T08:54:29.177Z,90.86
2022-10-26T08:57:00.818Z,91.71
2022-10-26T08:59:38.954Z,92.48
2022-10-26T09:02:13.239Z,91.67
2022-10-26T09:04:40.981Z,91.86
2022-10-26T09:07:20.489Z,92.11
2022-10-26T09:10:00.675Z,91.87
2022-10-26T09:12:44.047Z,91.96
2022-10-26T09:15:31.787Z,92.54
2022-10-26T09:18:02.106Z,90.79
2022-10-26T09:20:44.041Z,89.65
2022-10-26T09:23:43.711Z,90.67
2022-10-26T09:26:22.064Z,90.59
2022-10-26T09:28:49.843Z,89.78
2022-10-26T09:31:18.118Z,89.84
2022-10-26T09:33:45.091Z,90.80
2022-10-26T09:36:21.590Z,90.66
2022-10-26T09:38:51.271Z,90.51
2022-10-26T09:41:31.659Z,90.64
2022-10-26T09:44:18.553Z,90.38
2022-10-26T09:46:57.822Z,88.33
2022-10-26T09:49:33.795Z,88.28
2022-10-26T09:52:01.731Z,87.77
2022-10-26T09:54:29.827Z,87.43
2022-10-26T09:57:00.276Z,87.59
2022-10-26T09:59:27.939Z,87.71
2022-10-26T10:01:55.933Z,87.30
2022-10-26T10:04:24.362Z,86.56
2022-10-26T10:07:13.070Z,86.74
2022-10-26T10:09:40.279Z,86.66
2022-10-26T10:12:20.561Z,86.23
2022-10-26T10:14:59.128Z,85.88
2022-10-26T10:17:26.775Z,85.37
2022-10-26T10:19:53.958Z,84.02
2022-10-26T10:22:25.814Z,84.82
2022-10-26T10:24:55.849Z,84.88
2022-10-26T10:27:24.121Z,83.79
2022-10-26T10:29:53.307Z,83.82
2022-10-26T10:32:34.074Z,84.36
2022-10-26T10:35:23.316Z,84.41
2022-10-26T10:37:51.771Z,84.81
2022-10-26T10:40:22.224Z,86.08
2022-10-26T10:42:51.657Z,86.35
2022-10-26T10:45:23.457Z,85.92
2022-10-26T10:48:02.680Z,86.74
2022-10-26T10:50:31.123Z,86.05
2022-10-26T10:53:26.658Z,85.14
2022-10-26T10:56:12.486Z,85.88
2022-10-26T10:59:18.152Z,85.22
2022-10-26T11:02:16.520Z,84.90
2022-10-26T11:04:53.017Z,84.52
2022-10-26T11:07:21.763Z,85.65
2022-10-26T11:15:14.377Z,85.09
2022-10-26T11:17:53.393Z,84.74
2022-10-26T11:20:24.601Z,84.43
2022-10-26T11:23:00.719Z,85.02
2022-10-26T11:25:50.289Z,85.04
2022-10-26T11:28:49.481Z,83.01
2022-10-26T11:31:29.401Z,83.35
2022-10-26T11:34:18.182Z,84.51
2022-10-26T11:36:50.642Z,84.38
2022-10-26T11:39:21.018Z,85.49
2022-10-26T11:42:03.284Z,84.90
2022-10-26T11:44:38.071Z,84.20
2022-10-26T11:47:18.679Z,84.05
2022-10-26T11:50:06.665Z,84.65
2022-10-26T11:53:12.972Z,84.58
2022-10-26T11:55:41.095Z,84.43
2022-10-26T11:58:11.854Z,85.16
2022-10-26T12:00:51.900Z,84.76
2022-10-26T12:03:25.149Z,84.39
2022-10-26T12:05:52.445Z,84.84
2022-10-26T12:08:31.111Z,82.93
2022-10-26T12:11:42.989Z,83.27
2022-10-26T12:14:22.809Z,83.52
2022-10-26T12:16:59.412Z,83.98
2022-10-26T12:19:45.965Z,82.96
2022-10-26T12:22:16.412Z,83.01
2022-10-26T12:24:46.190Z,82.44
2022-10-26T12:27:49.964Z,82.24
2022-10-26T12:30:25.167Z,82.20
2022-10-26T12:33:22.640Z,82.75
2022-10-26T12:35:50.183Z,81.41
2022-10-26T12:38:31.663Z,80.35
2022-10-26T12:41:12.033Z,81.13
2022-10-26T12:43:40.820Z,80.90
2022-10-26T12:46:13.756Z,81.50
2022-10-26T12:48:51.742Z,82.28
2022-10-26T12:51:18.907Z,82.63
2022-10-26T12:53:58.063Z,82.88
2022-10-26T12:56:33.320Z,82.86
2022-10-26T12:59:33.449Z,83.34
2022-10-26T13:02:22.318Z,84.26
2022-10-26T13:05:27.353Z,84.19
2022-10-26T13:08:02.633Z,83.92
2022-10-26T13:10:29.843Z,82.96
2022-10-26T13:13:02.992Z,83.19
2022-10-26T13:15:38.810Z,82.72
2022-10-26T13:18:06.144Z,83.04
2022-10-26T13:20:36.317Z,83.21
2022-10-26T13:23:16.115Z,83.05
2022-10-26T13:26:01.022Z,84.26
2022-10-26T13:28:39.121Z,84.32
2022-10-26T13:31:18.683Z,84.07
2022-10-26T13:33:47.466Z,83.88
2022-10-26T13:36:36.515Z,83.40
2022-10-26T13:39:15.068Z,82.45
2022-10-26T13:41:45.528Z,83.29
2022-10-26T13:44:23.726Z,83.44
2022-10-26T13:46:59.424Z,82.97
2022-10-26T13:50:07.407Z,81.97
2022-10-26T13:52:43.157Z,83.19
2022-10-26T13:55:34.043Z,83.00
2022-10-26T13:58:22.426Z,83.82
2022-10-26T14:01:11.697Z,83.35
2022-10-26T14:03:39.398Z,82.44
2022-10-26T14:06:20.137Z,83.33
2022-10-26T14:08:49.553Z,83.74
2022-10-26T14:11:23.282Z,83.97
2022-10-26T14:13:51.039Z,84.06
2022-10-26T14:16:20.499Z,84.11
2022-10-26T14:18:49.383Z,83.97
2022-10-26T14:21:20.518Z,83.10
2022-10-26T14:23:58.811Z,82.63
2022-10-26T14:26:28.348Z,83.13
2022-10-26T14:29:01.641Z,83.35
2022-10-26T14:31:32.415Z,84.69
2022-10-26T14:34:01.882Z,84.59
2022-10-26T14:36:34.156Z,84.92
2022-10-26T14:39:06.539Z,85.72
2022-10-26T14:41:36.582Z,85.46
2022-10-26T14:44:04.526Z,85.17
2022-10-26T14:46:35.664Z,85.09
2022-10-26T14:49:03.701Z,85.15
2022-10-26T14:51:35.830Z,85.32
2022-10-26T14:54:04.463Z,85.28
2022-10-26T14:56:40.974Z,85.89
2022-10-26T14:59:31.828Z,86.33
2022-10-26T15:02:11.546Z,86.52
2022-10-26T15:04:56.358Z,86.49
2022-10-26T15:07:23.828Z,86.64
2022-10-26T15:09:53.594Z,87.23
2022-10-26T15:12:38.481Z,87.39
2022-10-26T15:15:14.540Z,87.87
2022-10-26T15:17:49.570Z,88.28
2022-10-26T15:20:23.265Z,88.08
2022-10-26T15:23:00.607Z,88.45
2022-10-26T15:25:33.996Z,88.84
2022-10-26T15:28:21.931Z,88.93
2022-10-26T15:31:22.733Z,89.49
2022-10-26T15:33:52.971Z,89.68
2022-10-26T15:36:27.600Z,89.96
2022-10-26T15:38:55.789Z,90.15
2022-10-26T15:41:32.189Z,90.58
2022-10-26T15:44:05.965Z,90.64
2022-10-26T15:46:36.657Z,90.81
2022-10-26T15:49:05.911Z,91.31
2022-10-26T15:51:33.363Z,91.48
2022-10-26T15:54:04.111Z,91.53
2022-10-26T15:56:32.132Z,91.84
2022-10-26T15:59:00.157Z,91.91
2022-10-26T16:01:29.631Z,92.47
2022-10-26T16:03:56.836Z,92.54
2022-10-26T16:06:28.764Z,92.87
2022-10-26T16:08:58.869Z,92.76
2022-10-26T16:11:26.528Z,93.04
2022-10-26T16:13:55.198Z,93.46
2022-10-26T16:16:24.287Z,93.51
2022-10-26T16:19:11.873Z,93.52
2022-10-26T16:21:43.803Z,93.56
2022-10-26T16:24:11.257Z,93.31
2022-10-26T16:26:38.368Z,93.44
2022-10-26T16:29:05.902Z,93.76
2022-10-26T16:31:32.904Z,93.79
2022-10-26T16:34:03.244Z,94.41
2022-10-26T16:36:34.591Z,95.09
2022-10-26T16:41:31.277Z,95.67
2022-10-26T16:43:58.918Z,95.58
2022-10-26T16:46:26.289Z,95.95
2022-10-26T16:48:53.505Z,95.90
2022-10-26T16:51:26.561Z,96.01
2022-10-26T16:53:55.873Z,95.99
2022-10-26T16:56:27.183Z,96.04
2022-10-26T16:58:55.271Z,96.04
2022-10-26T17:01:23.303Z,96.08
2022-10-26T17:03:51.602Z,96.03
2022-10-26T17:06:19.832Z,96.34
2022-10-26T17:08:47.484Z,96.78
2022-10-26T17:11:19.641Z,96.91
2022-10-26T17:13:47.996Z,96.94
2022-10-26T17:16:21.551Z,97.26
2022-10-26T17:18:49.639Z,97.28
2022-10-26T17:21:18.879Z,97.57
2022-10-26T17:23:46.373Z,97.73
2022-10-26T17:26:15.226Z,97.61
2022-10-26T17:28:42.370Z,97.79
2022-10-26T17:31:13.041Z,97.85
2022-10-26T17:33:42.903Z,97.89
2022-10-26T17:36:14.231Z,97.93
2022-10-26T17:38:43.157Z,98.14
2022-10-26T17:41:12.990Z,97.78
2022-10-26T17:43:41.579Z,97.95
2022-10-26T17:46:24.293Z,98.06
2022-10-26T17:48:57.400Z,98.38
2022-10-26T17:51:25.948Z,98.74
2022-10-26T17:53:53.644Z,98.92
2022-10-26T17:56:24.758Z,99.21
2022-10-26T17:59:01.568Z,99.19
2022-10-26T18:01:29.685Z,99.24
2022-10-26T18:03:57.323Z,99.38
2022-10-26T18:06:24.762Z,99.45
2022-10-26T18:08:52.043Z,99.20
2022-10-26T18:11:26.196Z,99.29
2022-10-26T18:13:58.079Z,99.38
2022-10-26T18:16:27.132Z,99.33
2022-10-26T18:19:00.647Z,99.52
2022-10-26T18:21:29.922Z,99.76
2022-10-26T18:23:57.111Z,99.80
2022-10-26T18:26:31.322Z,99.73
2022-10-26T18:29:00.056Z,99.84
2022-10-26T18:31:28.569Z,100.00
2022-10-26T18:33:57.496Z,100.00
2022-10-26T18:36:25.329Z,100.00
2022-10-26T18:38:53.530Z,100.00
2022-10-26T18:41:21.913Z,100.00
2022-10-26T18:43:51.686Z,100.00
2022-10-26T18:46:23.636Z,100.00
2022-10-26T18:48:58.179Z,100.00
2022-10-26T18:51:30.615Z,100.00
2022-10-26T18:53:58.814Z,100.00
2022-10-26T18:56:27.296Z,100.00
2022-10-26T18:58:59.542Z,100.00
2022-10-26T19:01:32.486Z,100.00
2022-10-26T19:04:02.019Z,100.00
2022-10-26T19:06:32.401Z,100.00
2022-10-26T19:08:59.910Z,100.00
2022-10-26T19:11:28.838Z,100.00
2022-10-26T19:13:56.197Z,100.00
2022-10-26T19:16:45.353Z,100.00
2022-10-26T19:19:16.381Z,100.00
2022-10-26T19:21:45.009Z,100.00
2022-10-26T19:24:16.695Z,100.00
2022-10-26T19:26:44.436Z,100.00
2022-10-26T19:29:15.189Z,100.00
2022-10-26T19:31:47.440Z,100.00
2022-10-26T19:34:15.884Z,100.00
2022-10-26T19:36:45.156Z,100.00
2022-10-26T19:39:17.630Z,100.00
2022-10-26T19:41:46.879Z,100.00
2022-10-26T19:44:15.327Z,100.00
2022-10-26T19:46:43.697Z,100.00
2022-10-26T19:49:12.596Z,100.00
2022-10-26T19:51:40.161Z,100.00
2022-10-26T19:54:07.679Z,100.00
2022-10-26T19:56:36.571Z,100.00
2022-10-26T19:59:04.382Z,100.00
2022-10-26T20:01:31.373Z,100.00
2022-10-26T20:03:58.613Z,100.00
2022-10-26T20:06:25.528Z,100.00
2022-10-26T20:08:52.571Z,100.00
2022-10-26T20:11:20.313Z,100.00
2022-10-26T20:13:48.464Z,100.00
2022-10-26T20:16:17.433Z,100.00
2022-10-26T20:18:47.860Z,100.00
2022-10-26T20:21:17.157Z,100.00
2022-10-26T20:23:45.017Z,100.00
2022-10-26T20:26:19.575Z,100.00
2022-10-26T20:28:51.107Z,100.00
2022-10-26T20:31:18.563Z,100.00
2022-10-26T20:33:49.509Z,100.00
2022-10-26T20:36:16.591Z,100.00
2022-10-26T20:38:44.054Z,100.00
2022-10-26T20:41:14.473Z,100.00
2022-10-26T20:43:42.752Z,100.00
2022-10-26T20:46:23.635Z,100.00
2022-10-26T20:48:52.450Z,100.00
2022-10-26T20:51:26.549Z,100.00
2022-10-26T20:54:10.494Z,100.00
2022-10-26T20:56:41.718Z,100.00
2022-10-26T20:59:25.069Z,100.00
2022-10-26T21:01:52.187Z,100.00
2022-10-26T21:04:19.480Z,100.00
2022-10-26T21:06:46.578Z,100.00
2022-10-26T21:09:13.612Z,100.00
2022-10-26T21:11:40.763Z,100.00
2022-10-26T21:14:08.092Z,100.00
2022-10-26T21:16:35.000Z,100.00
2022-10-26T21:19:04.933Z,100.00
2022-10-26T21:21:31.857Z,100.00
2022-10-26T21:23:59.003Z,100.00
2022-10-26T21:26:25.899Z,100.00
2022-10-26T21:28:53.067Z,100.00
2022-10-26T21:31:21.266Z,100.00
2022-10-26T21:33:48.789Z,100.00
2022-10-26T21:36:16.837Z,100.00
2022-10-26T21:38:45.532Z,100.00
2022-10-26T21:41:15.216Z,100.00
2022-10-26T21:43:48.647Z,100.00
2022-10-26T21:46:18.761Z,100.00
2022-10-26T21:48:46.675Z,100.00
2022-10-26T21:51:16.673Z,100.00
2022-10-26T21:53:44.342Z,100.00
2022-10-26T21:56:18.738Z,100.00
2022-10-26T21:58:46.318Z,100.00
2022-10-26T22:01:18.566Z,100.00
2022-10-26T22:03:46.494Z,100.00
2022-10-26T22:06:17.010Z,100.00
2022-10-26T22:08:45.167Z,100.00
2022-10-26T22:11:18.135Z,100.00
2022-10-26T22:13:46.757Z,100.00
2022-10-26T22:16:25.493Z,100.00
2022-10-26T22:18:54.825Z,100.00
2022-10-26T22:21:25.744Z,100.00
2022-10-26T22:23:53.745Z,100.00
2022-10-26T22:26:23.447Z,100.00
2022-10-26T22:28:53.515Z,100.00
2022-10-26T22:31:26.827Z,100.00
2022-10-26T22:34:07.601Z,100.00
2022-10-26T22:36:36.036Z,100.00
2022-10-26T22:39:04.027Z,100.00
2022-10-26T22:41:31.150Z,100.00
2022-10-26T22:44:16.891Z,100.00
2022-10-26T22:46:45.261Z,100.00
2022-10-26T22:49:13.238Z,100.00
2022-10-26T22:51:40.901Z,100.00
2022-10-26T22:54:07.840Z,100.00
2022-10-26T22:56:36.369Z,100.00
2022-10-26T22:59:05.097Z,100.00
2022-10-26T23:01:36.709Z,100.00
2022-10-26T23:04:04.041Z,100.00
2022-10-26T23:06:32.720Z,100.00
2022-10-26T23:08:59.855Z,100.00
2022-10-26T23:11:29.213Z,100.00
2022-10-26T23:13:58.992Z,100.00
2022-10-26T23:16:27.581Z,100.00
2022-10-26T23:18:55.525Z,100.00
2022-10-26T23:23:57.209Z,100.00
2022-10-26T23:26:24.843Z,100.00
2022-10-26T23:28:52.031Z,100.00
2022-10-26T23:31:22.495Z,100.00
2022-10-26T23:33:51.394Z,100.00
2022-10-26T23:36:19.067Z,100.00
2022-10-26T23:38:46.982Z,100.00
2022-10-26T23:41:15.091Z,100.00
2022-10-26T23:43:42.450Z,100.00
2022-10-26T23:46:09.743Z,100.00
2022-10-26T23:48:37.380Z,100.00
2022-10-26T23:51:05.086Z,100.00
2022-10-26T23:53:32.091Z,100.00
2022-10-26T23:56:17.394Z,100.00
2022-10-26T23:58:44.525Z,100.00
